Time;durP1;ratioP1;P1;durP2;ratioP2;P2;SDS_P1;SDS_P2;PMS_P1;PMS_P2;Temp;Humidity;BMP_temperature;BMP_pressure;BME280_temperature;BME280_humidity;BME280_pressure;Samples;Min_cycle;Max_cycle;Signal;HPM_P1;HPM_P2
2021/12/08 00:02:43;;;;;;;5.38;3.90;;;;;;;2.94;91.62;94809.38;10406406;27;97423;-64
2021/12/08 00:07:46;;;;;;;7.27;3.63;;;;;;;2.98;91.93;94812.50;10408546;27;101258;-63
2021/12/08 00:13:06;;;;;;;6.32;4.10;;;;;;;3.01;91.39;94807.06;10403060;27;96897;-64
2021/12/08 00:18:13;;;;;;;7.35;3.70;;;;;;;3.03;91.20;94787.94;10403109;28;98319;-64
2021/12/08 00:23:17;;;;;;;7.10;4.30;;;;;;;3.00;91.57;94787.41;10410474;27;99515;-63
2021/12/08 00:28:20;;;;;;;6.50;4.30;;;;;;;2.99;92.05;94783.19;10404894;27;97055;-63
2021/12/08 00:33:27;;;;;;;6.07;4.10;;;;;;;2.89;91.96;94772.84;10391132;27;98856;-64
2021/12/08 00:38:30;;;;;;;8.48;4.32;;;;;;;2.93;92.27;94773.41;10405759;27;96904;-64
2021/12/08 00:43:32;;;;;;;7.97;4.30;;;;;;;2.84;92.13;94775.03;10396789;27;96994;-64
2021/12/08 00:48:39;;;;;;;7.03;4.00;;;;;;;2.85;92.33;94756.03;10394747;28;98655;-63
2021/12/08 00:53:42;;;;;;;7.20;4.13;;;;;;;2.82;92.51;94751.16;10399624;27;98807;-63
2021/12/08 00:58:45;;;;;;;8.98;4.93;;;;;;;2.84;92.58;94746.66;10393211;28;97394;-64
2021/12/08 01:04:04;;;;;;;7.93;4.47;;;;;;;2.85;92.17;94741.38;10387755;28;98744;-64
2021/12/08 01:09:07;;;;;;;7.20;4.10;;;;;;;2.83;92.59;94732.16;10390161;27;97082;-64
2021/12/08 01:14:10;;;;;;;8.15;3.95;;;;;;;2.87;92.63;94733.50;10393944;28;97988;-64
2021/12/08 01:19:14;;;;;;;6.30;3.88;;;;;;;2.86;92.00;94731.88;10389411;28;98843;-63
2021/12/08 01:24:17;;;;;;;5.25;3.70;;;;;;;2.85;92.48;94735.41;10394258;28;98492;-64
2021/12/08 01:29:20;;;;;;;5.63;3.85;;;;;;;2.84;92.75;94729.44;10389827;28;98745;-63
2021/12/08 01:34:24;;;;;;;6.70;4.22;;;;;;;2.94;92.47;94729.41;10409428;27;96807;-64
2021/12/08 01:39:27;;;;;;;5.47;3.42;;;;;;;3.01;92.47;94730.47;10403925;28;96750;-64
2021/12/08 01:49:51;;;;;;;4.68;3.47;;;;;;;2.99;92.72;94727.22;10397517;28;102763;-64
2021/12/08 01:54:55;;;;;;;5.97;3.58;;;;;;;3.02;92.35;94726.16;10404954;27;98610;-64
2021/12/08 01:59:58;;;;;;;5.88;3.38;;;;;;;3.02;92.44;94718.41;10412090;27;96816;-64
2021/12/08 02:05:02;;;;;;;5.32;3.33;;;;;;;3.06;92.02;94719.75;10397279;27;97241;-63
2021/12/08 02:10:07;;;;;;;6.32;3.70;;;;;;;3.05;92.51;94715.56;10389917;27;98714;-63
2021/12/08 02:15:13;;;;;;;7.20;4.15;;;;;;;3.10;92.55;94703.06;10398816;27;102419;-63
2021/12/08 02:20:19;;;;;;;7.07;3.90;;;;;;;3.11;92.28;94693.53;10400496;27;97822;-64
2021/12/08 02:25:25;;;;;;;6.13;3.33;;;;;;;3.06;92.55;94702.50;10391315;28;97852;-64
2021/12/08 02:30:34;;;;;;;5.57;3.67;;;;;;;3.05;92.50;94695.72;10394352;28;97589;-64
2021/12/08 02:46:48;;;;;;;5.47;3.22;;;;;;;3.07;92.26;94683.50;10397424;27;98087;-64
2021/12/08 02:51:52;;;;;;;5.20;3.33;;;;;;;3.06;92.60;94668.97;10401883;27;97569;-63
2021/12/08 02:56:56;;;;;;;5.00;2.85;;;;;;;3.12;93.13;94659.88;10394871;28;99225;-63
2021/12/08 03:01:59;;;;;;;5.45;3.05;;;;;;;3.13;92.54;94640.84;10398072;28;99027;-63
2021/12/08 03:07:03;;;;;;;4.75;3.13;;;;;;;3.10;92.77;94635.13;10400168;28;98360;-63
2021/12/08 03:12:09;;;;;;;5.72;3.13;;;;;;;3.12;93.02;94628.06;10396420;28;100570;-63
2021/12/08 03:17:14;;;;;;;;;;;;;;;3.13;92.82;94621.97;10391840;28;98045;-63
2021/12/08 03:22:17;;;;;;;5.40;3.50;;;;;;;3.11;92.75;94611.78;10399742;27;96821;-64
2021/12/08 03:27:30;;;;;;;5.63;3.50;;;;;;;3.09;93.23;94620.63;10388672;28;98291;-63
2021/12/08 03:32:36;;;;;;;5.80;3.20;;;;;;;3.04;92.76;94637.34;10396056;28;98287;-64
2021/12/08 03:37:43;;;;;;;4.43;3.00;;;;;;;3.00;93.21;94633.41;10389078;27;97703;-64
2021/12/08 03:42:49;;;;;;;4.63;2.80;;;;;;;3.05;92.89;94623.50;10408416;27;97647;-64
2021/12/08 03:48:00;;;;;;;4.70;2.75;;;;;;;3.06;93.08;94619.94;10395002;27;96868;-64
2021/12/08 03:53:03;;;;;;;4.40;2.67;;;;;;;3.03;93.24;94602.19;10392130;28;98767;-64
2021/12/08 03:58:08;;;;;;;3.78;2.35;;;;;;;3.04;93.11;94584.94;10389531;28;97580;-64
2021/12/08 04:03:12;;;;;;;4.45;2.55;;;;;;;3.05;92.93;94559.00;10394909;28;96971;-64
2021/12/08 04:08:19;;;;;;;5.22;2.70;;;;;;;3.02;93.36;94572.16;10397176;28;97183;-64
2021/12/08 04:13:29;;;;;;;3.40;2.50;;;;;;;3.00;93.31;94543.13;10392696;28;96812;-64
2021/12/08 04:18:32;;;;;;;4.28;2.38;;;;;;;3.02;93.72;94546.38;10391681;28;99140;-63
2021/12/08 04:23:38;;;;;;;4.25;2.40;;;;;;;3.03;93.43;94553.16;10399851;28;97936;-64
2021/12/08 04:28:43;;;;;;;3.55;2.28;;;;;;;3.05;93.57;94563.34;10397035;27;97730;-63
2021/12/08 04:33:47;;;;;;;4.53;2.67;;;;;;;3.04;93.63;94584.94;10388615;28;98906;-64
2021/12/08 04:38:55;;;;;;;3.95;2.35;;;;;;;3.03;93.39;94563.50;10392492;28;98625;-64
2021/12/08 04:44:07;;;;;;;4.15;2.40;;;;;;;3.14;93.31;94574.59;10395516;27;98573;-64
2021/12/08 04:49:28;;;;;;;3.28;2.55;;;;;;;3.10;93.13;94563.72;10397721;28;98468;-63
2021/12/08 05:00:30;;;;;;;5.00;2.90;;;;;;;3.17;92.94;94561.38;10392636;28;96792;-64
2021/12/08 05:05:59;;;;;;;3.10;2.00;;;;;;;3.26;92.74;94563.09;10396881;27;100897;-64
2021/12/08 05:11:04;;;;;;;3.08;2.30;;;;;;;3.30;92.53;94542.97;10405412;28;97796;-63
2021/12/08 05:16:10;;;;;;;3.70;2.38;;;;;;;3.25;92.59;94531.31;10401600;28;97203;-64
2021/12/08 05:21:17;;;;;;;3.20;2.20;;;;;;;3.25;92.49;94520.97;10400688;28;97047;-64
2021/12/08 05:26:24;;;;;;;2.75;1.90;;;;;;;3.28;92.48;94535.38;10392806;27;98820;-63
2021/12/08 05:31:33;;;;;;;2.58;2.08;;;;;;;3.25;92.96;94548.56;10401256;28;97610;-64
2021/12/08 05:36:41;;;;;;;4.47;2.40;;;;;;;3.31;92.40;94526.53;10394938;28;98666;-63
2021/12/08 05:41:44;;;;;;;3.38;2.45;;;;;;;3.34;91.88;94514.13;10391509;27;96893;-63
2021/12/08 05:46:52;;;;;;;4.93;3.20;;;;;;;3.36;92.13;94538.06;10402381;28;98850;-64
2021/12/08 05:51:57;;;;;;;4.45;3.38;;;;;;;3.35;92.16;94541.59;10400485;28;96819;-64
2021/12/08 05:57:04;;;;;;;5.05;3.70;;;;;;;3.29;92.03;94562.00;10393573;28;96784;-64
2021/12/08 06:02:11;;;;;;;6.45;4.10;;;;;;;3.25;92.14;94551.16;10402675;28;97292;-64
2021/12/08 06:07:21;;;;;;;5.82;4.20;;;;;;;3.26;92.34;94543.25;10413530;27;96918;-64
2021/12/08 06:12:25;;;;;;;6.15;4.10;;;;;;;3.28;92.66;94545.69;10404343;27;98261;-63
2021/12/08 06:17:31;;;;;;;4.90;3.33;;;;;;;3.31;92.23;94571.22;10405751;27;96857;-64
2021/12/08 06:22:35;;;;;;;4.60;2.90;;;;;;;3.21;92.33;94566.09;10400048;28;96944;-64
2021/12/08 06:27:38;;;;;;;6.10;3.47;;;;;;;3.12;92.71;94505.06;10403258;28;97467;-63
2021/12/08 06:32:42;;;;;;;7.55;4.20;;;;;;;3.15;92.45;94538.28;10403532;28;98011;-64
2021/12/08 06:37:45;;;;;;;3.70;2.60;;;;;;;3.09;92.36;94562.09;10387387;28;98585;-64
2021/12/08 06:42:52;;;;;;;4.07;2.70;;;;;;;3.06;92.33;94572.69;10387917;27;99054;-64
2021/12/08 06:47:59;;;;;;;3.85;2.47;;;;;;;3.00;92.32;94550.88;10390557;28;97591;-64
2021/12/08 06:53:02;;;;;;;3.70;2.70;;;;;;;3.01;92.49;94500.06;10394796;28;97450;-64
2021/12/08 06:58:08;;;;;;;4.30;2.45;;;;;;;3.05;92.36;94515.13;10388068;28;98699;-63
2021/12/08 07:03:30;;;;;;;3.20;2.53;;;;;;;3.05;92.46;94546.09;10395230;28;99000;-64
2021/12/08 07:08:37;;;;;;;7.43;4.35;;;;;;;2.98;92.29;94547.63;10386536;28;97664;-64
2021/12/08 07:13:40;;;;;;;7.70;5.55;;;;;;;2.85;92.68;94578.09;10393642;28;98397;-64
2021/12/08 07:19:10;;;;;;;7.32;4.53;;;;;;;2.84;92.75;94579.03;10389647;28;99895;-64
2021/12/08 07:24:17;;;;;;;6.63;4.65;;;;;;;2.87;92.29;94583.91;10384246;28;97640;-64
2021/12/08 07:29:30;;;;;;;7.60;4.40;;;;;;;2.92;92.27;94592.03;10382897;28;96941;-64
2021/12/08 07:34:36;;;;;;;3.75;1.90;;;;;;;2.87;92.53;94599.38;10397239;28;98932;-64
2021/12/08 07:39:44;;;;;;;3.38;2.08;;;;;;;2.89;92.50;94592.31;10381428;28;97290;-64
2021/12/08 07:44:51;;;;;;;2.50;1.50;;;;;;;2.89;92.58;94563.94;10392361;27;97755;-63
2021/12/08 07:49:59;;;;;;;1.70;1.15;;;;;;;2.82;92.19;94544.84;10385633;28;99090;-64
2021/12/08 07:55:07;;;;;;;2.20;0.95;;;;;;;2.80;92.27;94524.34;10384380;28;96869;-63
2021/12/08 08:00:15;;;;;;;2.28;0.80;;;;;;;2.73;92.21;94563.75;10393050;28;97105;-64
2021/12/08 08:05:27;;;;;;;1.75;0.65;;;;;;;2.63;91.75;94576.66;10390075;28;97828;-64
2021/12/08 08:10:31;;;;;;;0.63;0.45;;;;;;;2.45;91.71;94589.44;10384920;28;98691;-64
2021/12/08 08:15:37;;;;;;;0.60;0.40;;;;;;;2.45;92.04;94599.75;10390112;28;98004;-63
2021/12/08 08:20:47;;;;;;;0.35;0.28;;;;;;;2.43;92.35;94596.53;10383092;28;98099;-63
2021/12/08 08:25:52;;;;;;;0.70;0.43;;;;;;;2.43;91.88;94596.53;10389160;28;98719;-63
2021/12/08 08:31:03;;;;;;;1.00;0.57;;;;;;;2.43;92.05;94576.69;10402607;27;99013;-64
2021/12/08 08:36:14;;;;;;;1.02;0.85;;;;;;;2.45;91.96;94585.09;10408071;27;97105;-64
2021/12/08 08:41:20;;;;;;;1.05;0.60;;;;;;;2.43;91.91;94581.06;10413043;27;99446;-64
2021/12/08 08:46:27;;;;;;;3.28;1.70;;;;;;;2.34;91.65;94576.72;10403738;28;96719;-64
2021/12/08 08:51:38;;;;;;;0.68;0.47;;;;;;;2.41;92.11;94588.91;10398270;27;98421;-63
2021/12/08 08:56:45;;;;;;;0.60;0.38;;;;;;;2.39;92.30;94600.31;10395395;28;100391;-64
2021/12/08 09:01:51;;;;;;;1.88;0.60;;;;;;;2.34;92.39;94612.78;10389168;28;97003;-64
2021/12/08 09:07:02;;;;;;;0.95;0.47;;;;;;;2.38;92.73;94619.31;10382215;28;96795;-64
2021/12/08 09:12:10;;;;;;;1.77;0.70;;;;;;;2.35;92.68;94614.41;10394635;28;96800;-64
2021/12/08 09:17:18;;;;;;;2.97;1.13;;;;;;;2.41;92.18;94616.47;10392730;28;96906;-64
2021/12/08 09:22:29;;;;;;;2.22;1.13;;;;;;;2.42;91.91;94630.97;10386992;28;96753;-64
2021/12/08 09:27:35;;;;;;;4.53;1.70;;;;;;;2.41;92.20;94624.19;10387971;28;96907;-64
2021/12/08 09:32:43;;;;;;;2.97;0.95;;;;;;;2.37;92.76;94627.97;10408900;27;96796;-64
2021/12/08 09:37:51;;;;;;;2.90;1.08;;;;;;;2.38;92.36;94625.28;10404140;27;97948;-64
2021/12/08 09:43:01;;;;;;;4.18;1.70;;;;;;;2.31;92.08;94625.00;10422678;27;96960;-64
2021/12/08 09:48:06;;;;;;;1.80;1.08;;;;;;;2.26;92.20;94624.59;10415707;27;97056;-64
2021/12/08 09:53:11;;;;;;;3.90;1.70;;;;;;;2.35;92.27;94627.31;10397294;27;99221;-64
2021/12/08 09:58:14;;;;;;;3.00;1.30;;;;;;;2.40;92.45;94628.53;10393044;27;96979;-64
2021/12/08 10:03:17;;;;;;;1.42;1.10;;;;;;;2.42;92.78;94623.22;10408708;27;96813;-64
2021/12/08 10:08:21;;;;;;;2.08;1.10;;;;;;;2.48;92.80;94622.69;10408839;27;96864;-64
2021/12/08 10:13:24;;;;;;;1.70;1.20;;;;;;;2.50;92.86;94623.38;10395560;27;96730;-64
2021/12/08 10:18:27;;;;;;;3.53;1.40;;;;;;;2.50;92.81;94613.84;10408730;27;97074;-64
2021/12/08 10:23:35;;;;;;;1.92;1.25;;;;;;;2.50;92.28;94618.19;10406464;27;96932;-64
2021/12/08 10:28:41;;;;;;;4.57;1.48;;;;;;;2.56;92.94;94611.69;10391557;27;96686;-64
2021/12/08 10:34:03;;;;;;;2.58;1.50;;;;;;;2.57;92.64;94619.28;10401756;27;96763;-64
2021/12/08 10:39:11;;;;;;;3.72;1.90;;;;;;;2.60;92.46;94613.84;10402708;27;97272;-64
2021/12/08 10:44:15;;;;;;;3.35;1.90;;;;;;;2.62;92.46;94606.78;10395983;27;97770;-64
2021/12/08 10:49:24;;;;;;;3.58;1.98;;;;;;;2.63;92.99;94608.41;10389421;27;98003;-64
2021/12/08 10:54:30;;;;;;;6.18;1.90;;;;;;;2.65;92.80;94606.50;10400590;27;97208;-64
2021/12/08 10:59:56;;;;;;;3.85;2.10;;;;;;;2.62;92.63;94590.50;10410715;27;96725;-64
2021/12/08 11:04:59;;;;;;;4.63;2.20;;;;;;;2.63;92.79;94585.22;10409656;27;96779;-63
2021/12/08 11:15:32;;;;;;;2.97;1.40;;;;;;;2.68;93.22;94570.16;10383634;28;98055;-65
2021/12/08 11:20:42;;;;;;;1.98;1.08;;;;;;;2.69;93.12;94563.22;10345202;28;97032;-65
2021/12/08 11:25:48;;;;;;;3.70;1.67;;;;;;;2.69;92.78;94558.84;10337371;28;96742;-65
2021/12/08 11:30:53;;;;;;;2.42;1.60;;;;;;;2.72;93.01;94557.78;10329806;28;97368;-65
2021/12/08 11:36:12;;;;;;;2.42;1.40;;;;;;;2.66;93.11;94546.25;10335761;28;96915;-65
2021/12/08 11:41:26;;;;;;;3.03;1.70;;;;;;;2.73;92.92;94545.69;10332779;28;97184;-63
2021/12/08 11:46:37;;;;;;;4.63;1.83;;;;;;;2.78;93.15;94546.88;10325781;28;97483;-65
2021/12/08 11:51:53;;;;;;;4.18;2.10;;;;;;;2.79;92.90;94550.25;10329471;28;96780;-65
2021/12/08 11:57:03;;;;;;;3.65;2.30;;;;;;;2.82;92.72;94550.00;10329241;28;96911;-65
2021/12/08 12:02:08;;;;;;;4.00;2.30;;;;;;;2.84;92.46;94548.06;10323152;28;96901;-65
2021/12/08 12:07:12;;;;;;;5.55;2.72;;;;;;;2.86;92.44;94541.03;10327083;28;97156;-65
2021/12/08 12:12:16;;;;;;;3.55;2.42;;;;;;;2.83;92.27;94538.72;10325834;28;97449;-65
2021/12/08 12:17:20;;;;;;;4.65;2.55;;;;;;;2.77;92.50;94537.53;10329648;28;96977;-65
2021/12/08 12:22:36;;;;;;;4.75;2.28;;;;;;;2.81;92.66;94528.56;10321802;28;96858;-65
2021/12/08 12:27:44;;;;;;;6.80;2.30;;;;;;;2.89;91.92;94535.56;10301455;28;97380;-65
2021/12/08 12:32:51;;;;;;;5.28;2.90;;;;;;;2.93;92.00;94530.94;10304650;28;96875;-66
2021/12/08 12:38:01;;;;;;;5.63;3.05;;;;;;;2.95;92.04;94534.19;10297629;28;97579;-66
2021/12/08 12:43:05;;;;;;;8.38;4.03;;;;;;;2.87;91.73;94533.16;10309839;28;97004;-62
2021/12/08 12:48:19;;;;;;;6.05;2.80;;;;;;;2.86;91.74;94541.03;10296736;28;97024;-63
2021/12/08 12:53:34;;;;;;;6.10;2.60;;;;;;;2.95;92.33;94537.59;10298848;28;97018;-65
2021/12/08 12:58:43;;;;;;;4.38;3.08;;;;;;;2.96;92.27;94535.81;10294111;28;97390;-66
2021/12/08 13:03:54;;;;;;;5.88;3.08;;;;;;;2.83;91.94;94525.84;10286214;28;96755;-66
2021/12/08 13:08:56;;;;;;;5.18;3.33;;;;;;;2.81;92.25;94528.56;10290395;28;96918;-65
2021/12/08 13:13:59;;;;;;;6.50;2.90;;;;;;;2.78;92.25;94538.34;10298582;28;97320;-63
2021/12/08 13:19:06;;;;;;;4.80;2.88;;;;;;;2.75;91.57;94523.16;10298824;28;97283;-63
2021/12/08 13:24:30;;;;;;;6.63;3.13;;;;;;;2.68;91.60;94522.91;10307274;28;96997;-65
2021/12/08 13:29:36;;;;;;;7.20;4.28;;;;;;;2.63;91.57;94525.91;10290375;28;96915;-66
2021/12/08 13:34:42;;;;;;;6.90;3.95;;;;;;;2.50;91.62;94517.69;10293845;28;98482;-64
2021/12/08 13:39:47;;;;;;;6.65;3.72;;;;;;;2.57;91.88;94516.16;10301263;28;97298;-65
2021/12/08 13:45:13;;;;;;;7.05;5.10;;;;;;;2.55;91.38;94520.66;10292378;28;96870;-65
2021/12/08 13:50:20;;;;;;;6.82;4.28;;;;;;;2.55;91.37;94517.25;10300128;28;97302;-65
2021/12/08 13:55:26;;;;;;;5.00;2.58;;;;;;;2.61;91.95;94516.69;10303297;28;96806;-65
2021/12/08 14:00:36;;;;;;;3.55;1.80;;;;;;;2.60;91.80;94525.38;10276951;28;96889;-65
2021/12/08 14:05:44;;;;;;;4.55;1.90;;;;;;;2.48;91.35;94532.47;10296879;28;96895;-65
2021/12/08 14:10:51;;;;;;;3.08;2.08;;;;;;;2.45;91.38;94532.75;10300717;28;97144;-65
2021/12/08 14:15:56;;;;;;;2.60;1.17;;;;;;;2.36;91.74;94538.75;10315770;28;96877;-65
2021/12/08 14:21:01;;;;;;;;;;;;;;;2.28;91.61;94537.66;10310006;28;96840;-66
2021/12/08 14:26:07;;;;;;;3.42;1.70;;;;;;;2.09;90.91;94543.69;10303709;28;97159;-65
2021/12/08 14:31:17;;;;;;;3.47;1.58;;;;;;;2.16;91.32;94538.78;10304450;28;96855;-65
2021/12/08 14:36:29;;;;;;;5.18;2.30;;;;;;;2.19;91.84;94550.56;10309249;28;96812;-65
2021/12/08 14:41:35;;;;;;;4.68;3.47;;;;;;;2.20;91.85;94550.44;10307795;28;98759;-65
2021/12/08 14:46:38;;;;;;;4.55;2.97;;;;;;;2.10;91.85;94555.59;10302742;28;97750;-65
2021/12/08 14:51:43;;;;;;;4.50;2.80;;;;;;;2.08;91.71;94561.84;10308749;28;96982;-65
2021/12/08 14:57:05;;;;;;;5.53;3.47;;;;;;;2.06;91.41;94559.41;10308773;28;97526;-65
2021/12/08 15:02:09;;;;;;;4.80;2.95;;;;;;;2.02;91.18;94559.81;10305407;28;98672;-65
2021/12/08 15:07:18;;;;;;;6.80;4.45;;;;;;;2.15;90.85;94562.91;10302736;28;97039;-65
2021/12/08 15:12:21;;;;;;;4.70;3.10;;;;;;;2.02;91.80;94563.19;10307798;28;97311;-65
2021/12/08 15:17:28;;;;;;;4.78;3.25;;;;;;;1.84;91.72;94567.41;10303003;28;97043;-65
2021/12/08 15:22:40;;;;;;;6.32;3.90;;;;;;;1.66;91.99;94565.50;10295467;28;96704;-65
2021/12/08 15:27:46;;;;;;;3.63;2.42;;;;;;;1.68;91.50;94570.53;10305026;28;97145;-65
2021/12/08 15:33:04;;;;;;;2.15;1.65;;;;;;;1.52;91.46;94577.00;10317699;28;96878;-65
2021/12/08 15:38:10;;;;;;;2.97;1.42;;;;;;;1.45;91.57;94585.38;10299947;28;96884;-65
2021/12/08 15:43:15;;;;;;;2.15;1.50;;;;;;;1.41;91.96;94582.25;10293286;28;100389;-64
2021/12/08 15:48:22;;;;;;;7.35;5.57;;;;;;;1.43;91.90;94576.97;10302433;28;96924;-65
2021/12/08 15:53:28;;;;;;;3.63;2.05;;;;;;;1.38;91.56;94579.94;10314504;28;97222;-64
2021/12/08 15:58:36;;;;;;;3.60;2.20;;;;;;;1.36;91.63;94576.69;10290791;28;96863;-65
2021/12/08 16:03:45;;;;;;;5.40;2.55;;;;;;;1.34;91.22;94586.31;10309339;28;96961;-65
2021/12/08 16:08:51;;;;;;;4.78;3.20;;;;;;;1.29;92.06;94596.19;10306425;28;97053;-65
2021/12/08 16:14:16;;;;;;;5.93;3.83;;;;;;;1.20;91.62;94594.41;10290750;28;96925;-65
2021/12/08 16:19:22;;;;;;;5.50;3.88;;;;;;;1.15;92.06;94605.06;10298855;28;96782;-65
2021/12/08 16:24:26;;;;;;;7.90;4.03;;;;;;;1.17;92.29;94614.31;10300568;28;97185;-65
2021/12/08 16:29:32;;;;;;;5.72;3.70;;;;;;;1.21;92.22;94608.88;10303792;28;96891;-65
2021/12/08 16:34:34;;;;;;;;;;;;;;;1.17;92.49;94609.16;10296630;28;96926;-65
2021/12/08 16:39:44;;;;;;;5.25;3.40;;;;;;;1.13;91.84;94606.97;10292860;28;97365;-65
2021/12/08 16:44:47;;;;;;;7.80;4.50;;;;;;;1.13;91.23;94615.50;10322273;28;101598;-65
2021/12/08 16:49:50;;;;;;;6.28;3.65;;;;;;;1.13;91.51;94623.22;10304660;28;96961;-65
2021/12/08 16:54:55;;;;;;;6.18;3.90;;;;;;;0.94;91.58;94623.13;10287328;28;96930;-65
2021/12/08 16:59:58;;;;;;;9.43;5.93;;;;;;;0.84;91.56;94632.56;10295959;28;96909;-65
2021/12/08 17:05:01;;;;;;;9.23;5.80;;;;;;;0.82;91.39;94635.25;10301397;28;97248;-65
2021/12/08 17:10:06;;;;;;;12.57;7.10;;;;;;;0.78;91.52;94641.59;10292412;28;96932;-64
2021/12/08 17:15:12;;;;;;;10.80;6.13;;;;;;;0.68;91.36;94646.69;10293532;28;97149;-65
2021/12/08 17:20:16;;;;;;;8.38;5.32;;;;;;;0.53;91.09;94651.34;10300247;28;97305;-65
2021/12/08 17:25:21;;;;;;;10.93;6.27;;;;;;;0.41;91.18;94653.16;10274310;28;97921;-65
2021/12/08 17:30:24;;;;;;;9.83;5.60;;;;;;;0.43;90.89;94656.41;10298381;28;97201;-65
2021/12/08 17:35:27;;;;;;;11.38;6.20;;;;;;;0.41;91.77;94658.28;10297256;28;96779;-64
2021/12/08 17:40:31;;;;;;;10.95;6.57;;;;;;;0.45;91.95;94653.72;10303587;28;96957;-65
2021/12/08 17:45:36;;;;;;;11.40;6.82;;;;;;;0.55;91.15;94664.03;10305823;28;97203;-65
2021/12/08 17:50:40;;;;;;;10.93;7.18;;;;;;;0.68;91.67;94651.81;10295813;28;97333;-66
2021/12/08 17:55:44;;;;;;;10.88;6.80;;;;;;;0.73;91.37;94667.69;10301469;28;97078;-66
2021/12/08 18:00:51;;;;;;;116.25;55.28;;;;;;;0.71;91.67;94669.56;10308235;28;99781;-66
2021/12/08 18:05:54;;;;;;;70.22;37.33;;;;;;;0.71;92.06;94677.28;10305988;28;97223;-66
2021/12/08 18:10:59;;;;;;;65.68;42.42;;;;;;;0.74;91.28;94678.75;10300839;28;97136;-66
2021/12/08 18:16:03;;;;;;;25.85;16.42;;;;;;;0.84;91.92;94673.69;10301266;28;97071;-65
2021/12/08 18:21:06;;;;;;;16.02;10.02;;;;;;;0.94;91.46;94685.66;10300508;28;97232;-66
2021/12/08 18:26:11;;;;;;;14.73;9.80;;;;;;;0.96;91.26;94688.09;10293931;28;97080;-66
2021/12/08 18:31:21;;;;;;;31.08;19.38;;;;;;;0.90;91.79;94692.00;10298580;28;97151;-66
2021/12/08 18:36:27;;;;;;;31.35;20.00;;;;;;;0.83;91.37;94698.59;10301398;28;97192;-69
2021/12/08 18:41:31;;;;;;;19.10;12.35;;;;;;;0.64;91.34;94704.41;10299929;28;96916;-66
2021/12/08 18:46:34;;;;;;;20.27;11.98;;;;;;;0.71;91.71;94689.31;10293275;28;98340;-66
2021/12/08 18:51:42;;;;;;;27.95;17.05;;;;;;;0.66;91.77;94697.41;10281798;28;97213;-66
2021/12/08 18:56:52;;;;;;;23.42;14.88;;;;;;;0.64;92.02;94709.56;10285093;28;97210;-66
2021/12/08 19:01:54;;;;;;;25.42;16.02;;;;;;;0.71;91.99;94712.44;10284813;28;97570;-66
2021/12/08 19:06:58;;;;;;;26.33;15.63;;;;;;;0.73;91.75;94718.28;10276273;28;97273;-66
2021/12/08 19:12:03;;;;;;;29.88;17.33;;;;;;;0.73;91.42;94721.66;10292478;28;97302;-66
2021/12/08 19:17:06;;;;;;;24.33;15.00;;;;;;;0.71;92.04;94720.16;10300145;28;97258;-66
2021/12/08 19:22:09;;;;;;;26.45;16.13;;;;;;;0.73;92.03;94719.09;10299899;28;96872;-66
2021/12/08 19:27:14;;;;;;;26.00;15.95;;;;;;;0.70;91.13;94723.66;10297448;28;97174;-66
2021/12/08 19:32:19;;;;;;;24.05;15.63;;;;;;;0.68;91.50;94739.19;10301184;28;97711;-66
2021/12/08 19:37:22;;;;;;;28.58;18.13;;;;;;;0.65;91.51;94730.94;10304212;28;97242;-66
2021/12/08 19:42:26;;;;;;;29.42;18.38;;;;;;;0.67;91.74;94735.03;10310515;28;97179;-66
2021/12/08 19:47:29;;;;;;;23.52;14.30;;;;;;;0.69;91.58;94742.59;10304854;28;96936;-66
2021/12/08 19:52:32;;;;;;;18.30;11.98;;;;;;;0.70;91.81;94757.88;10310868;28;97182;-66
2021/12/08 19:57:37;;;;;;;20.60;12.52;;;;;;;0.67;91.88;94741.91;10306709;28;97142;-66
2021/12/08 20:02:41;;;;;;;20.67;12.13;;;;;;;0.62;92.30;94737.16;10309834;28;97615;-66
2021/12/08 20:07:47;;;;;;;19.38;11.00;;;;;;;0.68;92.32;94746.91;10304022;28;97276;-66
2021/12/08 20:12:52;;;;;;;19.37;11.60;;;;;;;0.66;92.08;94751.38;10306876;28;96904;-65
2021/12/08 20:17:55;;;;;;;19.10;12.75;;;;;;;0.67;91.88;94750.44;10302881;28;97205;-66
2021/12/08 20:22:58;;;;;;;18.65;11.23;;;;;;;0.66;91.98;94764.22;10297083;28;97330;-66
2021/12/08 20:28:03;;;;;;;17.13;11.30;;;;;;;0.69;92.56;94760.56;10294463;28;98719;-67
2021/12/08 20:33:06;;;;;;;32.80;18.57;;;;;;;0.72;91.95;94766.31;10303088;28;97032;-66
2021/12/08 20:38:11;;;;;;;14.77;9.88;;;;;;;0.64;91.64;94766.09;10301992;28;97778;-66
2021/12/08 20:43:16;;;;;;;17.80;11.23;;;;;;;0.65;91.68;94777.19;10286066;28;98102;-66
2021/12/08 20:48:18;;;;;;;18.20;10.83;;;;;;;0.59;91.48;94783.66;10291759;28;98851;-66
2021/12/08 20:53:21;;;;;;;16.00;9.98;;;;;;;0.61;91.63;94776.63;10305535;28;97187;-66
2021/12/08 20:58:26;;;;;;;18.85;9.90;;;;;;;0.58;91.59;94782.00;10297494;28;97283;-66
2021/12/08 21:03:29;;;;;;;16.15;10.18;;;;;;;0.66;91.80;94773.69;10297806;28;97152;-66
2021/12/08 21:08:32;;;;;;;15.52;9.75;;;;;;;0.67;91.62;94786.44;10291439;28;97341;-66
2021/12/08 21:13:36;;;;;;;19.33;11.25;;;;;;;0.48;91.12;94792.22;10291003;28;97488;-66
2021/12/08 21:18:41;;;;;;;16.88;10.43;;;;;;;0.42;91.95;94788.34;10297102;28;97312;-66
2021/12/08 21:23:44;;;;;;;17.13;10.23;;;;;;;0.32;91.79;94808.00;10295777;28;98780;-66
2021/12/08 21:28:50;;;;;;;18.10;10.55;;;;;;;0.45;91.87;94796.78;10295138;28;97863;-66
2021/12/08 21:33:55;;;;;;;20.45;11.75;;;;;;;0.35;91.02;94820.59;10296521;28;97088;-66
2021/12/08 21:38:59;;;;;;;15.68;9.85;;;;;;;0.43;91.48;94815.69;10290676;28;97361;-66
2021/12/08 21:44:06;;;;;;;15.93;9.90;;;;;;;0.56;91.53;94814.72;10281313;28;99058;-66
2021/12/08 21:49:11;;;;;;;15.15;9.30;;;;;;;0.53;91.17;94822.66;10282397;28;100989;-66
2021/12/08 21:54:14;;;;;;;15.30;9.07;;;;;;;0.52;91.61;94800.50;10284909;28;97320;-66
2021/12/08 21:59:19;;;;;;;17.88;11.43;;;;;;;0.46;91.46;94812.06;10278379;28;98290;-66
2021/12/08 22:04:22;;;;;;;15.43;9.38;;;;;;;0.45;91.42;94832.75;10280343;28;97264;-66
2021/12/08 22:09:25;;;;;;;14.90;8.77;;;;;;;0.52;90.95;94833.91;10277601;28;98488;-66
2021/12/08 22:14:29;;;;;;;15.98;8.48;;;;;;;0.46;91.33;94847.22;10276613;28;96860;-66
2021/12/08 22:19:32;;;;;;;14.25;8.63;;;;;;;0.48;90.85;94837.63;10274727;28;97712;-66
2021/12/08 22:24:35;;;;;;;14.63;8.95;;;;;;;0.51;91.00;94858.75;10270548;28;100796;-66
2021/12/08 22:29:39;;;;;;;15.90;9.05;;;;;;;0.54;91.08;94848.25;10277455;28;97304;-66
2021/12/08 22:34:42;;;;;;;15.18;9.77;;;;;;;0.57;91.43;94868.56;10286967;28;97302;-66
2021/12/08 22:39:45;;;;;;;15.75;9.57;;;;;;;0.58;90.64;94864.22;10278649;28;98414;-66
2021/12/08 22:44:49;;;;;;;16.50;9.15;;;;;;;0.62;90.98;94860.50;10280445;28;97178;-66
2021/12/08 22:49:52;;;;;;;16.88;10.70;;;;;;;0.59;91.08;94871.03;10292755;28;98509;-67
2021/12/08 22:54:55;;;;;;;14.85;9.93;;;;;;;0.54;91.27;94883.41;10294229;28;100467;-67
2021/12/08 22:59:59;;;;;;;15.90;10.38;;;;;;;0.55;91.56;94885.88;10288884;28;96898;-66
2021/12/08 23:05:02;;;;;;;18.13;11.27;;;;;;;0.59;91.17;94887.25;10290987;28;98018;-66
2021/12/08 23:10:06;;;;;;;15.75;9.43;;;;;;;0.65;91.37;94896.22;10292939;28;97018;-66
2021/12/08 23:15:16;;;;;;;20.50;12.07;;;;;;;0.50;91.42;94887.97;10281532;28;97108;-66
2021/12/08 23:20:25;;;;;;;21.95;11.65;;;;;;;0.45;91.88;94890.09;10284611;28;97142;-66
2021/12/08 23:25:28;;;;;;;19.63;11.13;;;;;;;0.43;91.82;94900.47;10288488;28;97030;-66
2021/12/08 23:30:32;;;;;;;19.80;12.57;;;;;;;0.48;91.62;94894.16;10290453;28;97069;-66
2021/12/08 23:35:39;;;;;;;21.30;12.07;;;;;;;0.37;90.86;94902.69;10277865;28;98830;-66
2021/12/08 23:40:42;;;;;;;19.70;11.80;;;;;;;0.42;91.35;94896.25;10279736;28;97098;-66
2021/12/08 23:45:47;;;;;;;21.92;12.05;;;;;;;0.52;91.67;94906.66;10281837;28;97442;-66
2021/12/08 23:50:50;;;;;;;24.27;12.45;;;;;;;0.57;90.50;94901.16;10283705;28;97432;-67
2021/12/08 23:55:54;;;;;;;20.65;12.02;;;;;;;0.57;90.51;94919.97;10281443;28;98369;-66
